Archival Weather

Kayes/Dag-Dag

Kayes/Dag-Dag, Mali (GAKD)

Report from: Thursday, September 21, 2023 4:00 PM UTC
Current time: Friday, February 23, 2024 9:20 PM UTC

Current weather – Weather history – Daily summaries
Weather forecast

Temperature33.0°C (91.4°F)
Heat index39.3°C (102.7°F)
Dew point24.0°C (75.2°F)
Winds 4 kts (2.1 m/s, 4.6 mph) North (360°)
Visibility6.2 mi. (10 km)
Clouds Few clouds 2,000 ft. (610 m)
Altimeter29.85 in.Hg (1011 mB)
Relative humidity59 %
Density altitude2,525 ft. (770 m)
Flight conditions Visual Meteorological Conditions
Raw dataGAKD 211600Z 36004KT 9999 FEW020 33/24 Q1011
An error has occurred. This application may no longer respond until reloaded. Reload 🗙